Terminal Aerodrome Forecast
Issued by NWS Caribou, ME

Home | Current Version | Previous Version | Text Only | Print | Product List | Glossary On
Versions: 1 2 3 4 5 6 7 8 9 10 11 12 13 14 15 16 17
047
FTUS41 KCAR 260806 AAC
TAFCAR
TAF AMD
KCAR 260806Z 2608/2706 16007KT 6SM -RA BR OVC007
     FM261200 15005KT 3SM -RA BR OVC005
     FM262000 16006KT P6SM VCSH OVC003=

USA.gov is the U.S. government's official web portal to all federal, state and local government web resources and services.